createdAt,value
2023-01-05T06:05:54.338Z,14.30
2023-01-05T06:10:58.807Z,14.30
2023-01-05T06:16:02.498Z,14.30
2023-01-05T06:21:07.858Z,14.20
2023-01-05T06:26:11.503Z,14.20
2023-01-05T06:31:15.328Z,14.20
2023-01-05T06:36:20.409Z,14.10
2023-01-05T06:41:24.018Z,14.10
2023-01-05T06:46:27.592Z,14.00
2023-01-05T06:51:32.593Z,14.00
2023-01-05T06:56:36.261Z,14.00
2023-01-05T07:01:39.969Z,13.90
2023-01-05T07:06:45.145Z,13.80
2023-01-05T07:11:48.741Z,13.80
2023-01-05T07:16:52.351Z,13.80
2023-01-05T07:21:58.559Z,13.70
2023-01-05T07:27:09.225Z,13.70
2023-01-05T07:32:13.287Z,13.70
2023-01-05T07:37:18.258Z,13.70
2023-01-05T07:42:22.046Z,13.70
2023-01-05T07:47:26.321Z,13.70
2023-01-05T07:52:33.192Z,13.80
2023-01-05T07:57:37.206Z,13.80
2023-01-05T08:02:40.997Z,13.80
2023-01-05T08:07:46.008Z,13.80
2023-01-05T08:13:06.939Z,13.70
2023-01-05T08:18:10.561Z,13.70
2023-01-05T08:23:25.904Z,13.70
2023-01-05T08:28:35.249Z,13.70
2023-01-05T08:33:39.311Z,13.70
2023-01-05T08:38:48.265Z,13.70
2023-01-05T08:43:53.109Z,13.80
2023-01-05T08:48:58.796Z,13.80
2023-01-05T08:54:03.834Z,13.80
2023-01-05T08:59:07.597Z,13.90
2023-01-05T09:04:11.356Z,13.90
2023-01-05T09:09:16.467Z,14.00
2023-01-05T09:14:20.168Z,14.00
2023-01-05T09:19:23.936Z,14.20
2023-01-05T09:24:28.917Z,14.10
2023-01-05T09:29:32.717Z,14.20
2023-01-05T09:34:36.285Z,14.30
2023-01-05T09:39:41.319Z,14.30
2023-01-05T09:44:47.902Z,14.40
2023-01-05T09:49:52.080Z,14.50
2023-01-05T09:54:57.886Z,14.50
2023-01-05T10:00:07.244Z,14.60
2023-01-05T10:05:14.948Z,14.50
2023-01-05T10:10:43.523Z,14.50
2023-01-05T10:15:51.405Z,14.50
2023-01-05T10:21:12.156Z,14.60
2023-01-05T10:26:24.858Z,14.70
2023-01-05T10:31:40.198Z,14.80
2023-01-05T10:37:08.558Z,14.80
2023-01-05T10:42:21.144Z,14.80
2023-01-05T10:47:27.344Z,14.80
2023-01-05T10:52:31.345Z,14.80
2023-01-05T10:57:39.702Z,14.80
2023-01-05T11:02:49.787Z,14.80
2023-01-05T11:07:56.533Z,14.90
2023-01-05T11:13:07.408Z,14.80
2023-01-05T11:18:26.966Z,14.90
2023-01-05T11:23:37.657Z,14.90
2023-01-05T11:28:59.411Z,14.90
2023-01-05T11:34:09.704Z,14.90
2023-01-05T11:39:24.167Z,14.90
2023-01-05T11:44:29.341Z,14.90
2023-01-05T11:49:33.200Z,14.90
2023-01-05T11:54:39.264Z,14.90
2023-01-05T11:59:45.309Z,14.90
2023-01-05T12:05:04.968Z,14.90
2023-01-05T12:10:29.608Z,14.90
2023-01-05T12:16:02.196Z,14.90
2023-01-05T12:21:11.792Z,14.90
2023-01-05T12:26:22.595Z,14.90
2023-01-05T12:37:19.387Z,15.00
2023-01-05T12:42:39.589Z,15.00
2023-01-05T12:47:56.141Z,15.00
2023-01-05T12:53:08.701Z,15.10
2023-01-05T12:58:18.044Z,15.10
2023-01-05T13:03:27.481Z,15.10
2023-01-05T13:08:39.332Z,15.10
2023-01-05T13:13:47.348Z,15.10
2023-01-05T13:18:55.651Z,15.20
2023-01-05T13:24:04.301Z,15.20
2023-01-05T13:29:08.386Z,15.20
2023-01-05T13:34:43.113Z,15.20
2023-01-05T13:40:04.570Z,15.20
2023-01-05T13:45:23.797Z,15.20
2023-01-05T13:50:51.369Z,15.20
2023-01-05T13:55:58.760Z,15.20
2023-01-05T14:01:04.714Z,15.30
2023-01-05T14:06:18.765Z,15.30
2023-01-05T14:11:24.823Z,15.40
2023-01-05T14:16:54.632Z,15.40
2023-01-05T14:22:22.269Z,15.30
2023-01-05T14:27:26.186Z,15.30
2023-01-05T14:32:31.882Z,15.30
2023-01-05T14:37:39.593Z,15.30
2023-01-05T14:42:48.946Z,15.20
2023-01-05T14:47:56.366Z,15.20
2023-01-05T14:53:05.234Z,15.10
2023-01-05T14:58:14.687Z,15.00
2023-01-05T15:03:23.083Z,15.00
2023-01-05T15:09:08.427Z,15.00
2023-01-05T15:14:41.968Z,15.00
2023-01-05T15:20:14.316Z,15.00
2023-01-05T15:25:49.256Z,15.00
2023-01-05T15:31:34.678Z,15.00
2023-01-05T15:36:47.580Z,14.90
2023-01-05T15:41:51.818Z,14.90
2023-01-05T15:46:56.312Z,14.80
2023-01-05T15:52:01.120Z,14.80
2023-01-05T15:57:04.872Z,14.80
2023-01-05T16:02:18.461Z,14.80
2023-01-05T16:07:23.430Z,14.70
2023-01-05T16:12:27.681Z,14.70
2023-01-05T16:17:33.649Z,14.60
2023-01-05T16:22:45.284Z,14.60
2023-01-05T16:27:50.798Z,14.60
2023-01-05T16:32:58.258Z,14.60
2023-01-05T16:38:17.163Z,14.60
2023-01-05T16:43:26.607Z,14.60
2023-01-05T16:48:48.107Z,14.50
2023-01-05T16:53:55.329Z,14.40
2023-01-05T16:58:59.840Z,14.20
2023-01-05T17:04:12.335Z,14.20
2023-01-05T17:09:25.608Z,14.10
2023-01-05T17:14:29.695Z,14.10
2023-01-05T17:19:35.937Z,14.00
2023-01-05T17:24:41.154Z,14.00
2023-01-05T17:29:44.880Z,13.90
2023-01-05T17:34:48.496Z,13.90
2023-01-05T17:39:53.520Z,13.90
2023-01-05T17:44:57.171Z,14.00
2023-01-05T17:50:00.755Z,14.00
2023-01-05T17:55:06.468Z,14.00
2023-01-05T18:00:13.487Z,13.90
2023-01-05T18:05:17.871Z,13.90
2023-01-05T18:10:26.971Z,13.80
2023-01-05T18:15:32.705Z,13.80
2023-01-05T18:20:36.464Z,13.80
2023-01-05T18:25:41.540Z,13.70
2023-01-05T18:30:45.427Z,13.70
2023-01-05T18:35:50.774Z,13.70
2023-01-05T18:40:59.271Z,13.70
2023-01-05T18:46:03.208Z,13.70
2023-01-05T18:51:08.305Z,13.70
2023-01-05T18:56:14.973Z,13.60
2023-01-05T19:01:20.340Z,13.70
2023-01-05T19:06:26.266Z,13.70
2023-01-05T19:11:31.609Z,13.70
2023-01-05T19:16:36.509Z,14.20
2023-01-05T19:21:42.220Z,13.60
2023-01-05T19:26:48.891Z,13.50
2023-01-05T19:31:52.663Z,13.50
2023-01-05T19:36:56.264Z,13.40
2023-01-05T19:42:01.232Z,13.40
2023-01-05T19:47:04.865Z,13.40
2023-01-05T19:52:08.427Z,13.30
2023-01-05T19:57:13.434Z,13.40
2023-01-05T20:02:17.077Z,13.40
2023-01-05T20:07:20.699Z,13.40
2023-01-05T20:12:25.774Z,13.40
2023-01-05T20:17:29.440Z,13.40
2023-01-05T20:22:33.016Z,13.40
2023-01-05T20:27:38.012Z,13.40
2023-01-05T20:32:41.655Z,13.40
2023-01-05T20:37:45.249Z,13.40
2023-01-05T20:42:50.190Z,13.40
2023-01-05T20:47:53.904Z,13.40
2023-01-05T20:52:57.515Z,13.40
2023-01-05T20:58:02.702Z,13.40
2023-01-05T21:03:06.313Z,13.40
2023-01-05T21:08:10.256Z,13.40
2023-01-05T21:13:31.891Z,13.40
2023-01-05T21:18:36.490Z,13.30
2023-01-05T21:23:40.285Z,13.30
2023-01-05T21:28:46.491Z,13.30
2023-01-05T21:33:50.717Z,13.40
2023-01-05T21:39:02.585Z,13.40
2023-01-05T21:44:10.612Z,13.40
2023-01-05T21:49:14.553Z,13.40
2023-01-05T21:54:35.952Z,13.40
2023-01-05T21:59:41.769Z,13.40
2023-01-05T22:04:45.830Z,13.40
2023-01-05T22:09:49.446Z,13.40
2023-01-05T22:14:54.435Z,13.40
2023-01-05T22:19:58.134Z,13.30
2023-01-05T22:25:01.738Z,13.30
2023-01-05T22:30:08.417Z,13.30
2023-01-05T22:35:12.005Z,13.30
2023-01-05T22:40:15.727Z,13.30
2023-01-05T22:45:20.736Z,13.30
2023-01-05T22:50:24.457Z,13.40
2023-01-05T22:55:28.068Z,13.40
2023-01-05T23:00:33.093Z,13.40
2023-01-05T23:05:39.342Z,13.40
2023-01-05T23:10:42.944Z,13.40
2023-01-05T23:15:53.291Z,13.40
2023-01-05T23:20:58.604Z,13.40
2023-01-05T23:26:02.550Z,13.40
